Exning, United Kingdom
Current Conditions -  °F | °C
As of 10:08 AM on Tuesday 27 Jan 2015 (Local Time) from EGUN Reporting Station
Broken Clouds Broken Clouds  
Wind Chill: 36°   Ceiling: 9000
Heat Index: 41°   Visibility: 6mi
Dew Point: 39°   Wind: 8mph
Humidity: 93%   Direction: 270°W
Pressure: 30.3"   Gusts: NA
Location:  52.27°N, 0.37°E
Report Text: EGUN 271008Z AUTO 27007KT 9999 FEW022 SCT044 BKN090 05/04 A3030 RMK AO2
Loading
Personal Weather Stations






























Interactive Weather Map New forecast layout! Learn more

10-Day Weather Forecast

Advertisements
Track Severe Weather on mobile